Time;durP1;ratioP1;P1;durP2;ratioP2;P2;SDS_P1;SDS_P2;PMS_P1;PMS_P2;Temp;Humidity;BMP_temperature;BMP_pressure;BME280_temperature;BME280_humidity;BME280_pressure;Samples;Min_cycle;Max_cycle;Signal;HPM_P1;HPM_P2
2022/11/14 00:01:58;;;;;;;78.40;27.80;;;;;;;1.56;100.00;100578.46;103918;1333;22506;-37
2022/11/14 00:04:24;;;;;;;56.20;21.20;;;;;;;1.47;100.00;100572.04;103795;1340;22147;-36
2022/11/14 00:06:49;;;;;;;59.40;23.20;;;;;;;1.32;100.00;100563.98;103937;1326;22409;-37
2022/11/14 00:09:15;;;;;;;57.80;27.50;;;;;;;1.38;100.00;100567.79;103943;1336;22346;-36
2022/11/14 00:11:40;;;;;;;55.70;23.60;;;;;;;1.37;100.00;100573.24;104009;1341;22182;-34
2022/11/14 00:14:06;;;;;;;63.00;27.30;;;;;;;1.38;100.00;100574.98;103975;1339;22542;-37
2022/11/14 00:16:31;;;;;;;66.40;29.40;;;;;;;1.36;100.00;100576.54;103960;1333;22310;-36
2022/11/14 00:18:57;;;;;;;86.10;28.30;;;;;;;1.40;100.00;100582.61;103876;1327;22149;-37
2022/11/14 00:21:23;;;;;;;59.20;25.20;;;;;;;1.31;100.00;100582.55;103981;1340;22282;-34
2022/11/14 00:23:48;;;;;;;67.90;29.30;;;;;;;1.25;100.00;100583.14;103841;1334;22183;-33
2022/11/14 00:26:14;;;;;;;86.80;31.50;;;;;;;1.13;100.00;100586.46;103978;1333;22199;-37
2022/11/14 00:28:39;;;;;;;56.90;25.80;;;;;;;1.04;100.00;100591.70;103975;1334;22171;-34
2022/11/14 00:31:05;;;;;;;49.80;22.40;;;;;;;1.01;100.00;100592.43;103909;1334;22018;-33
2022/11/14 00:33:30;;;;;;;51.20;21.90;;;;;;;0.97;100.00;100593.91;103990;1333;22041;-38
2022/11/14 00:35:56;;;;;;;47.20;20.50;;;;;;;0.94;100.00;100598.17;103966;1337;22191;-34
2022/11/14 00:38:22;;;;;;;51.00;17.70;;;;;;;0.90;100.00;100594.02;103957;1326;22502;-36
2022/11/14 00:40:48;;;;;;;61.20;23.60;;;;;;;0.86;100.00;100593.05;103995;1334;22510;-33
2022/11/14 00:43:14;;;;;;;69.60;26.90;;;;;;;0.81;100.00;100587.09;103867;1341;22403;-37
2022/11/14 00:45:42;;;;;;;40.80;20.30;;;;;;;0.80;100.00;100581.71;103823;1341;22112;-34
2022/11/14 00:48:08;;;;;;;50.20;23.70;;;;;;;0.75;100.00;100576.20;103985;1340;22211;-34
2022/11/14 00:50:33;;;;;;;45.20;20.90;;;;;;;0.74;100.00;100572.58;103955;1341;22103;-37
2022/11/14 00:52:59;;;;;;;53.40;23.60;;;;;;;0.77;100.00;100571.82;103978;1341;22176;-33
2022/11/14 00:55:24;;;;;;;66.40;22.60;;;;;;;0.74;100.00;100570.11;103971;1341;22198;-37
2022/11/14 00:57:50;;;;;;;98.80;25.00;;;;;;;0.70;100.00;100568.92;103930;1326;22357;-37
2022/11/14 01:00:16;;;;;;;47.90;19.00;;;;;;;0.67;100.00;100566.67;103998;1341;22862;-37
2022/11/14 01:02:41;;;;;;;54.00;24.20;;;;;;;0.66;100.00;100566.23;103956;1341;22212;-36
2022/11/14 01:05:07;;;;;;;48.00;18.90;;;;;;;0.64;100.00;100564.96;103987;1334;22446;-36
2022/11/14 01:07:33;;;;;;;58.00;23.60;;;;;;;0.64;100.00;100565.98;103957;1341;22565;-36
2022/11/14 01:09:58;;;;;;;52.60;23.20;;;;;;;0.63;100.00;100563.64;103948;1341;22214;-37
2022/11/14 01:12:24;;;;;;;52.50;22.00;;;;;;;0.57;100.00;100562.59;103393;1341;22506;-33
2022/11/14 01:14:50;;;;;;;35.30;17.80;;;;;;;0.48;100.00;100556.17;103983;1333;22334;-37
2022/11/14 01:17:15;;;;;;;69.20;24.10;;;;;;;0.39;100.00;100551.48;103990;1327;22608;-34
2022/11/14 01:19:41;;;;;;;48.30;20.90;;;;;;;0.31;100.00;100554.37;103970;1340;22685;-35
2022/11/14 01:22:07;;;;;;;86.50;36.60;;;;;;;0.22;100.00;100551.58;103980;1341;22540;-33
2022/11/14 01:24:32;;;;;;;89.30;35.50;;;;;;;0.16;100.00;100545.46;103988;1341;22029;-36
2022/11/14 01:26:58;;;;;;;72.90;26.50;;;;;;;0.11;100.00;100543.90;103922;1341;22251;-36
2022/11/14 01:29:24;;;;;;;64.70;30.90;;;;;;;0.02;100.00;100547.09;103970;1340;22507;-36
2022/11/14 01:31:49;;;;;;;47.90;22.20;;;;;;;-0.12;100.00;100543.77;103967;1341;22153;-38
2022/11/14 01:34:15;;;;;;;64.40;30.90;;;;;;;-0.21;100.00;100549.11;103954;1341;22514;-36
2022/11/14 01:36:41;;;;;;;59.30;24.30;;;;;;;-0.30;100.00;100556.20;103889;1342;24407;-36
2022/11/14 01:39:06;;;;;;;74.90;28.30;;;;;;;-0.39;100.00;100557.85;103957;1341;22630;-33
2022/11/14 01:41:32;;;;;;;88.20;25.60;;;;;;;-0.44;100.00;100557.81;103822;1330;22522;-34
2022/11/14 01:43:57;;;;;;;48.60;20.70;;;;;;;-0.45;100.00;100558.40;103902;1332;22229;-37
2022/11/14 01:46:27;;;;;;;64.80;22.20;;;;;;;-0.44;100.00;100557.82;103962;1343;22079;-36
2022/11/14 01:48:56;;;;;;;43.40;17.50;;;;;;;-0.41;100.00;100562.39;103832;1341;22424;-33
2022/11/14 01:51:42;;;;;;;48.90;22.20;;;;;;;-0.34;100.00;100566.71;103830;1336;22533;-34
2022/11/14 01:54:13;;;;;;;40.90;15.80;;;;;;;-0.20;100.00;100577.25;103963;1341;22219;-34
2022/11/14 01:56:43;;;;;;;35.40;15.40;;;;;;;-0.09;100.00;100585.09;103917;1341;22724;-34
2022/11/14 01:59:11;;;;;;;50.10;24.30;;;;;;;-0.01;100.00;100601.67;103974;1335;22528;-37
2022/11/14 02:01:41;;;;;;;50.20;22.70;;;;;;;0.05;100.00;100611.01;103965;1342;23466;-34
2022/11/14 02:04:06;;;;;;;34.20;15.50;;;;;;;0.07;100.00;100609.31;103991;1341;22298;-37
2022/11/14 02:06:32;;;;;;;40.40;21.60;;;;;;;0.07;100.00;100620.76;103997;1340;22036;-37
2022/11/14 02:09:00;;;;;;;47.50;18.10;;;;;;;0.04;100.00;100625.31;104005;1341;22491;-37
2022/11/14 02:11:28;;;;;;;62.30;27.20;;;;;;;0.03;100.00;100627.18;103291;1342;22034;-34
2022/11/14 02:13:53;;;;;;;43.00;21.60;;;;;;;0.05;100.00;100629.12;103989;1338;22178;-36
2022/11/14 02:16:19;;;;;;;56.90;25.70;;;;;;;0.07;100.00;100634.45;104004;1341;22140;-34
2022/11/14 02:18:45;;;;;;;18.30;7.90;;;;;;;0.09;100.00;100637.48;103972;1337;22209;-36
2022/11/14 02:21:11;;;;;;;47.30;22.60;;;;;;;0.14;100.00;100638.95;103862;1341;22425;-36
2022/11/14 02:23:37;;;;;;;40.20;20.00;;;;;;;0.19;100.00;100640.34;103957;1342;22191;-34
2022/11/14 02:26:02;;;;;;;33.10;14.20;;;;;;;0.18;100.00;100636.91;103803;1344;22188;-36
2022/11/14 02:28:28;;;;;;;85.80;38.90;;;;;;;0.16;100.00;100637.74;103992;1330;22396;-34
2022/11/14 02:30:54;;;;;;;115.00;57.60;;;;;;;0.19;100.00;100634.23;103840;1332;22780;-34
2022/11/14 02:33:19;;;;;;;47.10;23.90;;;;;;;0.19;100.00;100637.20;103977;1341;22078;-37
2022/11/14 02:35:45;;;;;;;57.40;27.30;;;;;;;0.21;100.00;100634.81;103969;1339;22148;-33
2022/11/14 02:38:11;;;;;;;59.20;25.20;;;;;;;0.24;100.00;100628.23;103756;1342;22523;-36
2022/11/14 02:40:36;;;;;;;67.80;26.60;;;;;;;0.22;100.00;100628.39;103990;1340;22393;-37
2022/11/14 02:43:02;;;;;;;61.10;27.40;;;;;;;0.14;100.00;100625.39;103970;1339;22246;-37
2022/11/14 02:45:28;;;;;;;119.10;56.10;;;;;;;0.05;100.00;100616.82;103987;1334;22149;-34
2022/11/14 02:47:53;;;;;;;324.10;200.40;;;;;;;-0.00;100.00;100604.83;103813;1348;22515;-33
2022/11/14 02:50:19;;;;;;;139.30;69.80;;;;;;;0.02;100.00;100594.69;103899;1340;22427;-33
2022/11/14 02:52:44;;;;;;;106.10;48.70;;;;;;;0.04;100.00;100589.37;104014;1336;22133;-37
2022/11/14 02:55:10;;;;;;;65.20;24.70;;;;;;;0.07;100.00;100581.09;103868;1341;22146;-37
2022/11/14 02:57:36;;;;;;;59.50;24.50;;;;;;;0.10;100.00;100573.01;103972;1340;22518;-37
2022/11/14 03:00:02;;;;;;;45.10;21.30;;;;;;;0.12;100.00;100570.02;103969;1341;22231;-33
2022/11/14 03:02:28;;;;;;;49.70;20.70;;;;;;;0.13;100.00;100563.30;104006;1342;22011;-33
2022/11/14 03:04:53;;;;;;;49.40;21.00;;;;;;;0.17;100.00;100569.53;103981;1340;22515;-37
2022/11/14 03:07:19;;;;;;;45.90;20.40;;;;;;;0.24;100.00;100564.15;103921;1340;22093;-37
2022/11/14 03:09:45;;;;;;;50.20;20.40;;;;;;;0.33;100.00;100564.97;103964;1334;22676;-33
2022/11/14 03:12:10;;;;;;;45.20;18.50;;;;;;;0.38;100.00;100567.78;103984;1337;22378;-37
2022/11/14 03:14:36;;;;;;;49.60;20.60;;;;;;;0.39;100.00;100568.77;103965;1347;22168;-37
2022/11/14 03:17:02;;;;;;;40.00;16.70;;;;;;;0.36;100.00;100568.58;103975;1335;22193;-34
2022/11/14 03:19:27;;;;;;;46.40;18.40;;;;;;;0.34;100.00;100564.83;103719;1333;22522;-37
2022/11/14 03:21:53;;;;;;;15.50;7.60;;;;;;;0.36;100.00;100560.36;103954;1337;22153;-34
2022/11/14 03:24:19;;;;;;;42.70;16.60;;;;;;;0.37;100.00;100558.29;103959;1343;22525;-34
2022/11/14 03:26:44;;;;;;;41.90;17.80;;;;;;;0.41;100.00;100553.50;103942;1341;22039;-36
2022/11/14 03:29:10;;;;;;;47.90;18.40;;;;;;;0.47;100.00;100553.27;103994;1327;22204;-34
2022/11/14 03:31:35;;;;;;;54.20;18.40;;;;;;;0.52;100.00;100559.43;103986;1342;22548;-36
2022/11/14 03:34:01;;;;;;;48.30;17.80;;;;;;;0.55;100.00;100563.97;103815;1342;22194;-34
2022/11/14 03:36:26;;;;;;;37.20;15.50;;;;;;;0.56;100.00;100567.13;103858;1345;22059;-37
2022/11/14 03:38:52;;;;;;;45.00;18.60;;;;;;;0.57;100.00;100569.70;103980;1323;22237;-34
2022/11/14 03:41:18;;;;;;;38.50;15.70;;;;;;;0.60;100.00;100577.56;103985;1328;22145;-34
2022/11/14 03:43:44;;;;;;;48.70;19.40;;;;;;;0.62;100.00;100575.34;103869;1343;22256;-33
2022/11/14 03:46:09;;;;;;;44.80;18.50;;;;;;;0.67;100.00;100583.10;103904;1342;22528;-37
2022/11/14 03:48:35;;;;;;;41.50;15.10;;;;;;;0.72;100.00;100578.54;103987;1340;22179;-37
2022/11/14 03:51:01;;;;;;;46.60;20.80;;;;;;;0.75;100.00;100579.60;104010;1339;22152;-34
2022/11/14 03:53:27;;;;;;;32.80;16.60;;;;;;;0.76;100.00;100578.79;103987;1340;22256;-37
2022/11/14 03:55:52;;;;;;;37.60;16.50;;;;;;;0.78;100.00;100579.86;103891;1341;22291;-34
2022/11/14 03:58:18;;;;;;;37.50;18.20;;;;;;;0.81;100.00;100574.73;103981;1342;22323;-36
2022/11/14 04:00:44;;;;;;;42.80;14.90;;;;;;;0.85;100.00;100578.14;103995;1346;22133;-37
2022/11/14 04:03:09;;;;;;;38.60;15.20;;;;;;;0.88;100.00;100577.94;103747;1342;22089;-37
2022/11/14 04:05:35;;;;;;;49.70;18.90;;;;;;;0.92;100.00;100581.02;103755;1342;22164;-37
2022/11/14 04:08:04;;;;;;;44.40;16.90;;;;;;;0.93;100.00;100576.86;103674;1341;423691;-36
2022/11/14 04:10:29;;;;;;;46.20;20.00;;;;;;;0.93;100.00;100577.92;103951;1342;22607;-37
2022/11/14 04:12:55;;;;;;;61.20;19.20;;;;;;;0.94;100.00;100578.39;103904;1333;24267;-37
2022/11/14 04:15:21;;;;;;;55.40;20.60;;;;;;;0.98;100.00;100575.88;103354;1348;22519;-34
2022/11/14 04:17:46;;;;;;;32.10;13.30;;;;;;;1.00;100.00;100571.33;104005;1347;22121;-34
2022/11/14 04:20:13;;;;;;;37.60;16.20;;;;;;;1.02;100.00;100566.44;104007;1335;22358;-35
2022/11/14 04:22:38;;;;;;;;;;;;;;;1.03;100.00;100562.09;104003;1347;22207;-38
2022/11/14 04:25:05;;;;;;;40.00;17.10;;;;;;;1.06;100.00;100562.43;104005;1342;22226;-34
2022/11/14 04:27:31;;;;;;;38.70;17.20;;;;;;;1.06;100.00;100557.63;103873;1347;22200;-37
2022/11/14 04:29:56;;;;;;;36.30;15.90;;;;;;;1.10;100.00;100564.81;103970;1340;22151;-34
2022/11/14 04:32:22;;;;;;;39.40;16.20;;;;;;;1.11;100.00;100562.98;103934;1334;22540;-36
2022/11/14 04:34:47;;;;;;;37.10;17.10;;;;;;;1.12;100.00;100569.00;103941;1346;22539;-34
2022/11/14 04:37:13;;;;;;;39.20;15.80;;;;;;;1.13;100.00;100573.56;103984;1344;22529;-37
2022/11/14 04:39:39;;;;;;;33.10;14.70;;;;;;;1.13;100.00;100571.46;104007;1339;22330;-37
2022/11/14 04:42:04;;;;;;;50.40;17.60;;;;;;;1.16;100.00;100574.59;103982;1340;22164;-37
2022/11/14 04:44:30;;;;;;;29.10;14.00;;;;;;;1.15;100.00;100569.34;104020;1342;22909;-37
2022/11/14 04:46:56;;;;;;;24.30;11.90;;;;;;;1.17;100.00;100569.42;104028;1337;22158;-37
2022/11/14 04:49:22;;;;;;;36.10;16.50;;;;;;;1.15;100.00;100567.58;104006;1337;22270;-37
2022/11/14 04:51:48;;;;;;;37.80;18.20;;;;;;;1.16;100.00;100568.22;103941;1333;22625;-34
2022/11/14 04:54:14;;;;;;;33.60;17.00;;;;;;;1.17;100.00;100566.77;103966;1341;22161;-37
2022/11/14 04:56:40;;;;;;;33.30;13.30;;;;;;;1.19;100.00;100564.20;103980;1333;22372;-37
2022/11/14 04:59:05;;;;;;;34.60;12.10;;;;;;;1.19;100.00;100564.53;103851;1340;22059;-37
2022/11/14 05:01:31;;;;;;;27.00;12.40;;;;;;;1.17;100.00;100558.63;103967;1335;22544;-37
2022/11/14 05:03:57;;;;;;;38.00;17.00;;;;;;;1.19;100.00;100562.73;103913;1336;22520;-34
2022/11/14 05:06:22;;;;;;;33.50;13.10;;;;;;;1.18;100.00;100557.34;103983;1332;22021;-35
2022/11/14 05:08:48;;;;;;;28.40;13.30;;;;;;;1.17;100.00;100558.64;103982;1334;22081;-34
2022/11/14 05:11:14;;;;;;;38.10;14.40;;;;;;;1.15;100.00;100554.93;103962;1342;22070;-37
2022/11/14 05:13:41;;;;;;;32.70;13.90;;;;;;;1.12;100.00;100552.48;103959;1342;22099;-34
2022/11/14 05:16:07;;;;;;;29.70;13.60;;;;;;;1.08;100.00;100543.40;103645;1341;22493;-33
2022/11/14 05:18:32;;;;;;;34.40;14.50;;;;;;;1.04;100.00;100539.64;103994;1334;22538;-34
2022/11/14 05:20:59;;;;;;;37.20;16.40;;;;;;;0.99;100.00;100538.21;103992;1341;22039;-34
2022/11/14 05:23:25;;;;;;;32.20;14.60;;;;;;;0.98;100.00;100539.35;103882;1340;22497;-34
2022/11/14 05:25:57;;;;;;;29.90;15.30;;;;;;;0.98;100.00;100534.23;103841;1335;22531;-38
2022/11/14 05:28:23;;;;;;;34.00;15.40;;;;;;;0.99;100.00;100533.29;103855;1340;22323;-33
2022/11/14 05:30:48;;;;;;;23.60;12.30;;;;;;;1.01;100.00;100530.36;103941;1341;22155;-37
2022/11/14 05:33:14;;;;;;;39.00;15.10;;;;;;;1.05;100.00;100533.92;103835;1333;22571;-36
2022/11/14 05:35:40;;;;;;;32.50;15.20;;;;;;;1.08;100.00;100538.30;103810;1341;22361;-33
2022/11/14 05:38:05;;;;;;;40.00;17.60;;;;;;;1.09;100.00;100542.29;103974;1341;22217;-37
2022/11/14 05:40:31;;;;;;;49.60;16.60;;;;;;;1.10;100.00;100543.99;103657;1342;22512;-36
2022/11/14 05:42:56;;;;;;;33.10;15.60;;;;;;;1.11;100.00;100544.26;103903;1338;22200;-36
2022/11/14 05:45:22;;;;;;;44.80;19.40;;;;;;;1.11;100.00;100547.04;103784;1332;22531;-32
2022/11/14 05:47:47;;;;;;;34.90;13.20;;;;;;;1.12;100.00;100548.91;103962;1327;22047;-33
2022/11/14 05:50:15;;;;;;;36.10;14.70;;;;;;;1.14;100.00;100553.73;103998;1333;22166;-37
2022/11/14 05:52:40;;;;;;;38.40;16.50;;;;;;;1.15;100.00;100555.46;103978;1341;22467;-36
2022/11/14 05:55:06;;;;;;;65.60;23.90;;;;;;;1.17;100.00;100553.69;103958;1341;22566;-37
2022/11/14 05:57:32;;;;;;;42.10;15.80;;;;;;;1.18;100.00;100551.85;103948;1341;22558;-33
2022/11/14 05:59:58;;;;;;;43.10;18.10;;;;;;;1.16;100.00;100553.79;103920;1334;22508;-36
2022/11/14 06:02:24;;;;;;;36.20;14.50;;;;;;;1.14;100.00;100555.84;103930;1339;22527;-36
2022/11/14 06:04:50;;;;;;;34.40;11.50;;;;;;;1.16;100.00;100557.30;103949;1341;22322;-33
2022/11/14 06:07:15;;;;;;;33.60;13.50;;;;;;;1.17;100.00;100553.70;103972;1341;22163;-33
2022/11/14 06:09:41;;;;;;;31.90;14.30;;;;;;;1.18;100.00;100553.80;103800;1333;22202;-36
2022/11/14 06:12:06;;;;;;;34.30;14.00;;;;;;;1.24;100.00;100559.43;103962;1333;22521;-32
2022/11/14 06:14:32;;;;;;;32.70;14.70;;;;;;;1.29;100.00;100565.75;103932;1333;22458;-33
2022/11/14 06:16:58;;;;;;;31.30;11.60;;;;;;;1.32;100.00;100572.08;103953;1333;22152;-35
2022/11/14 06:19:23;;;;;;;29.10;12.60;;;;;;;1.34;100.00;100575.77;103972;1341;22211;-32
2022/11/14 06:21:49;;;;;;;28.20;13.60;;;;;;;1.36;100.00;100576.38;103942;1341;22234;-33
2022/11/14 06:24:15;;;;;;;24.70;12.50;;;;;;;1.39;100.00;100577.70;103978;1323;22165;-32
2022/11/14 06:26:41;;;;;;;30.00;12.40;;;;;;;1.43;100.00;100578.39;103867;1341;22203;-33
2022/11/14 06:29:06;;;;;;;35.80;15.20;;;;;;;1.44;100.00;100578.16;103900;1341;22510;-36
2022/11/14 06:31:32;;;;;;;35.30;15.70;;;;;;;1.47;100.00;100583.54;103640;1335;22489;-32
2022/11/14 06:33:58;;;;;;;30.30;11.80;;;;;;;1.50;100.00;100583.00;103738;1341;22020;-36
2022/11/14 06:36:23;;;;;;;36.60;14.00;;;;;;;1.50;100.00;100585.77;103944;1333;22410;-36
2022/11/14 06:38:49;;;;;;;36.10;16.30;;;;;;;1.53;100.00;100583.27;103845;1339;22562;-33
2022/11/14 06:41:17;;;;;;;34.00;14.30;;;;;;;1.55;100.00;100589.45;103980;1341;22543;-33
2022/11/14 06:43:45;;;;;;;29.00;13.70;;;;;;;1.56;100.00;100587.44;103954;1340;24463;-37
2022/11/14 06:46:13;;;;;;;87.50;20.70;;;;;;;1.57;100.00;100582.83;103915;1340;22245;-34
2022/11/14 06:48:39;;;;;;;40.50;16.00;;;;;;;1.59;100.00;100587.80;103931;1340;22432;-33
2022/11/14 06:51:05;;;;;;;58.70;20.70;;;;;;;1.61;100.00;100590.27;103824;1325;24408;-34
2022/11/14 06:53:32;;;;;;;56.60;18.10;;;;;;;1.66;100.00;100593.80;103479;1333;22055;-36
2022/11/14 06:55:59;;;;;;;46.60;18.20;;;;;;;1.69;100.00;100594.45;103173;1341;22069;-36
2022/11/14 06:58:26;;;;;;;33.70;14.90;;;;;;;1.72;100.00;100589.33;103861;1341;23281;-37
2022/11/14 07:00:52;;;;;;;48.00;18.30;;;;;;;1.78;100.00;100591.39;103915;1334;22377;-36
2022/11/14 07:03:17;;;;;;;81.80;27.20;;;;;;;1.81;100.00;100588.49;103874;1341;22206;-33
2022/11/14 07:05:43;;;;;;;35.20;13.80;;;;;;;1.84;100.00;100583.16;103923;1341;22538;-33
2022/11/14 07:08:09;;;;;;;30.40;14.90;;;;;;;1.86;100.00;100585.30;103896;1341;22363;-36
2022/11/14 07:10:34;;;;;;;24.40;14.10;;;;;;;1.90;100.00;100579.52;103963;1338;22598;-37
2022/11/14 07:13:00;;;;;;;34.60;16.70;;;;;;;1.95;100.00;100579.17;103978;1340;22200;-33
2022/11/14 07:15:25;;;;;;;44.90;17.10;;;;;;;2.01;100.00;100580.33;103955;1327;22047;-33
2022/11/14 07:17:51;;;;;;;39.60;16.70;;;;;;;2.09;100.00;100579.08;103957;1341;22520;-37
2022/11/14 07:20:17;;;;;;;43.90;16.10;;;;;;;2.14;100.00;100572.67;103868;1341;22630;-37
2022/11/14 07:22:45;;;;;;;42.30;16.90;;;;;;;2.17;100.00;100572.27;103956;1341;22219;-33
2022/11/14 07:25:11;;;;;;;29.30;15.20;;;;;;;2.19;100.00;100569.79;103730;1326;25242;-33
2022/11/14 07:27:37;;;;;;;39.60;18.00;;;;;;;2.24;100.00;100567.84;103300;1336;22513;-33
2022/11/14 07:30:03;;;;;;;39.70;18.40;;;;;;;2.32;100.00;100566.55;103915;1341;22176;-36
2022/11/14 07:32:29;;;;;;;27.50;13.90;;;;;;;2.37;100.00;100562.79;103924;1341;24523;-34
2022/11/14 07:34:54;;;;;;;44.90;16.60;;;;;;;2.41;100.00;100560.37;103399;1326;22543;-36
2022/11/14 07:37:20;;;;;;;25.70;13.00;;;;;;;2.44;100.00;100550.96;103878;1333;22375;-36
2022/11/14 07:39:45;;;;;;;38.70;15.60;;;;;;;2.49;100.00;100547.43;103984;1341;22234;-34
2022/11/14 07:42:11;;;;;;;31.60;14.10;;;;;;;2.53;100.00;100542.14;103928;1341;22537;-33
2022/11/14 07:44:36;;;;;;;29.90;14.90;;;;;;;2.60;100.00;100544.27;103855;1333;22605;-33
2022/11/14 07:50:27;;;;;;;27.50;16.00;;;;;;;2.88;100.00;100535.55;103384;1344;545734;-35
2022/11/14 07:52:54;;;;;;;28.10;14.40;;;;;;;2.93;100.00;100542.77;103783;1327;22544;-35
2022/11/14 07:55:20;;;;;;;29.40;16.00;;;;;;;2.99;100.00;100531.38;103717;1345;22521;-32
2022/11/14 07:57:46;;;;;;;35.20;13.10;;;;;;;3.04;100.00;100529.20;103796;1344;22142;-33
2022/11/14 08:00:12;;;;;;;39.90;19.70;;;;;;;3.11;100.00;100521.02;103789;1344;22089;-34
2022/11/14 08:02:38;;;;;;;39.50;15.70;;;;;;;3.19;100.00;100515.44;103751;1345;22185;-35
2022/11/14 08:05:04;;;;;;;25.30;13.00;;;;;;;3.27;100.00;100509.65;103348;1343;541153;-32
2022/11/14 08:07:29;;;;;;;29.00;14.10;;;;;;;3.34;100.00;100499.40;103843;1341;22331;-32
2022/11/14 08:09:55;;;;;;;26.20;14.70;;;;;;;3.49;100.00;100492.70;103955;1342;22070;-35
2022/11/14 08:12:21;;;;;;;22.70;13.10;;;;;;;3.86;100.00;100495.11;103915;1342;22535;-35
2022/11/14 08:14:47;;;;;;;33.10;15.70;;;;;;;4.26;100.00;100491.11;103953;1333;22201;-35
2022/11/14 08:17:12;;;;;;;37.60;18.20;;;;;;;4.56;100.00;100476.10;103913;1327;22304;-35
2022/11/14 08:19:38;;;;;;;24.90;15.40;;;;;;;4.84;100.00;100444.81;103934;1342;22156;-35
2022/11/14 08:22:05;;;;;;;20.70;11.10;;;;;;;5.09;100.00;100408.52;104000;1342;22187;-32
2022/11/14 08:24:32;;;;;;;20.70;12.50;;;;;;;5.37;100.00;100374.95;103967;1341;22206;-35
2022/11/14 08:26:58;;;;;;;12.60;8.80;;;;;;;5.58;100.00;100348.31;103925;1342;23449;-36
2022/11/14 08:29:24;;;;;;;24.80;13.90;;;;;;;5.76;100.00;100311.19;103944;1342;22516;-38
2022/11/14 08:31:49;;;;;;;20.30;11.50;;;;;;;5.92;100.00;100288.65;103696;1342;24411;-40
2022/11/14 08:34:15;;;;;;;24.00;13.00;;;;;;;6.15;100.00;100271.60;103849;1342;22498;-38
2022/11/14 08:36:41;;;;;;;14.50;9.80;;;;;;;6.37;100.00;100264.45;103939;1341;22181;-38
2022/11/14 08:39:06;;;;;;;15.90;9.20;;;;;;;6.58;100.00;100254.09;103509;1342;22093;-35
2022/11/14 08:41:32;;;;;;;17.40;11.00;;;;;;;6.77;100.00;100241.04;103927;1341;22546;-35
2022/11/14 08:43:57;;;;;;;25.40;12.00;;;;;;;7.01;100.00;100249.98;103871;1342;22720;-33
2022/11/14 08:46:23;;;;;;;20.20;10.70;;;;;;;7.23;100.00;100246.98;103879;1340;22238;-33
2022/11/14 08:48:49;;;;;;;19.00;12.30;;;;;;;7.45;100.00;100234.02;103945;1341;22551;-36
2022/11/14 08:51:15;;;;;;;27.60;9.90;;;;;;;7.57;100.00;100222.78;103935;1333;22520;-33
2022/11/14 08:53:41;;;;;;;12.80;8.80;;;;;;;7.85;100.00;100220.63;103934;1334;22069;-35
2022/11/14 08:56:08;;;;;;;15.80;10.40;;;;;;;7.94;100.00;100211.88;103686;1318;24846;-33
2022/11/14 08:58:34;;;;;;;21.90;12.60;;;;;;;8.10;100.00;100205.79;103811;1342;22238;-33
2022/11/14 09:01:01;;;;;;;13.50;8.70;;;;;;;8.23;100.00;100197.09;103920;1340;23110;-37
2022/11/14 09:03:27;;;;;;;11.10;7.30;;;;;;;8.36;100.00;100195.27;103768;1342;22070;-37
2022/11/14 09:05:53;;;;;;;15.80;9.70;;;;;;;8.53;100.00;100196.43;103871;1342;22208;-37
2022/11/14 09:08:18;;;;;;;11.00;7.60;;;;;;;8.67;100.00;100190.64;103946;1328;22507;-37
2022/11/14 09:10:44;;;;;;;11.20;7.40;;;;;;;8.86;100.00;100193.35;103355;1334;22818;-38
2022/11/14 09:13:10;;;;;;;13.20;7.60;;;;;;;9.06;100.00;100187.27;103673;1334;22555;-35
2022/11/14 09:15:35;;;;;;;12.70;8.10;;;;;;;9.19;100.00;100188.02;102957;1328;22620;-35
2022/11/14 09:18:01;;;;;;;13.70;9.30;;;;;;;9.22;100.00;100177.88;103946;1341;22505;-35
2022/11/14 09:20:29;;;;;;;13.10;9.10;;;;;;;9.39;100.00;100179.89;103619;1342;22521;-38
2022/11/14 09:22:58;;;;;;;7.80;6.70;;;;;;;9.54;100.00;100174.61;103852;1342;22563;-35
2022/11/14 09:25:25;;;;;;;12.90;7.90;;;;;;;9.70;100.00;100167.80;103861;1334;22091;-35
2022/11/14 09:27:51;;;;;;;15.50;7.40;;;;;;;9.86;100.00;100163.99;103664;1342;22536;-38
2022/11/14 09:30:17;;;;;;;11.10;7.40;;;;;;;9.81;100.00;100155.31;103921;1342;22516;-37
2022/11/14 09:32:43;;;;;;;15.30;7.40;;;;;;;9.95;100.00;100153.42;103239;1342;22228;-37
2022/11/14 09:35:08;;;;;;;5.00;4.30;;;;;;;10.10;100.00;100149.23;103787;1341;23112;-35
2022/11/14 09:37:34;;;;;;;9.60;7.20;;;;;;;10.21;100.00;100151.83;103833;1336;22540;-37
2022/11/14 09:40:00;;;;;;;10.10;6.70;;;;;;;10.47;100.00;100146.55;103884;1342;22603;-35
2022/11/14 09:42:30;;;;;;;11.20;7.30;;;;;;;10.55;100.00;100137.10;103810;1334;24228;-34
2022/11/14 09:44:57;;;;;;;10.00;7.90;;;;;;;10.68;99.91;100137.85;103824;1342;22170;-38
2022/11/14 09:47:27;;;;;;;13.80;8.90;;;;;;;10.75;98.75;100135.24;103346;1343;22224;-38
2022/11/14 09:49:58;;;;;;;9.20;6.20;;;;;;;10.98;99.15;100130.23;103948;1342;22206;-35
2022/11/14 09:52:27;;;;;;;10.80;8.50;;;;;;;11.19;98.15;100126.29;103870;1335;22212;-39
2022/11/14 09:54:56;;;;;;;11.70;7.90;;;;;;;11.33;96.03;100125.10;103914;1342;22482;-35
2022/11/14 09:57:22;;;;;;;11.10;7.50;;;;;;;11.62;98.01;100120.27;103747;1334;22312;-35
2022/11/14 09:59:48;;;;;;;10.50;7.20;;;;;;;11.72;94.79;100115.24;103899;1341;22050;-36
2022/11/14 10:02:26;;;;;;;15.90;9.50;;;;;;;11.92;92.93;100111.09;103921;1341;22531;-38
2022/11/14 10:04:52;;;;;;;8.30;6.60;;;;;;;12.14;91.09;100104.95;103795;1342;22573;-38
2022/11/14 10:07:26;;;;;;;9.60;7.40;;;;;;;12.21;88.59;100100.35;103920;1334;23493;-36
2022/11/14 10:10:01;;;;;;;23.90;13.00;;;;;;;12.46;88.55;100097.01;103872;1342;22623;-35
2022/11/14 10:12:35;;;;;;;9.80;6.70;;;;;;;12.72;87.69;100095.89;103901;1342;22024;-39
2022/11/14 10:15:09;;;;;;;9.70;7.70;;;;;;;12.90;86.34;100095.98;103972;1342;22518;-38
2022/11/14 10:17:36;;;;;;;9.80;7.20;;;;;;;13.09;85.71;100092.76;103906;1342;23261;-38
2022/11/14 10:20:10;;;;;;;12.90;6.40;;;;;;;13.28;82.55;100086.98;103565;1342;22517;-35
2022/11/14 10:22:41;;;;;;;14.30;8.10;;;;;;;13.60;84.04;100083.37;103122;1342;22237;-35
2022/11/14 10:25:13;;;;;;;11.40;7.60;;;;;;;13.78;81.16;100084.29;103743;1341;22236;-35
2022/11/14 10:27:46;;;;;;;7.30;5.30;;;;;;;14.12;81.72;100077.31;103877;1342;22803;-39
2022/11/14 10:30:14;;;;;;;4.50;4.10;;;;;;;14.38;80.18;100071.52;103395;1342;22602;-37
2022/11/14 10:32:41;;;;;;;14.10;5.90;;;;;;;14.69;77.39;100064.35;103771;1342;22539;-37
2022/11/14 10:35:14;;;;;;;13.30;5.50;;;;;;;14.74;71.22;100064.36;103813;1341;22535;-37
2022/11/14 10:37:49;;;;;;;10.20;6.00;;;;;;;14.78;66.78;100062.32;103759;1342;23269;-37
2022/11/14 10:40:18;;;;;;;6.50;4.30;;;;;;;14.83;65.77;100062.83;103939;1334;22200;-35
2022/11/14 10:42:46;;;;;;;4.00;3.30;;;;;;;14.96;65.27;100060.12;103877;1339;22502;-37
2022/11/14 10:45:18;;;;;;;7.50;4.50;;;;;;;15.16;64.32;100056.42;103893;1342;22541;-37
2022/11/14 10:47:47;;;;;;;5.80;5.00;;;;;;;15.22;62.42;100049.34;103894;1337;22522;-37
2022/11/14 10:50:17;;;;;;;5.40;3.70;;;;;;;15.43;63.04;100048.50;103928;1328;22534;-37
2022/11/14 10:52:44;;;;;;;6.10;3.60;;;;;;;15.90;63.75;100048.96;104006;1341;22528;-35
2022/11/14 10:55:14;;;;;;;4.50;4.00;;;;;;;16.15;60.97;100047.79;103843;1325;23848;-37
2022/11/14 10:57:43;;;;;;;4.90;4.10;;;;;;;16.22;60.52;100047.16;103886;1340;22197;-36
2022/11/14 11:00:11;;;;;;;5.10;4.70;;;;;;;16.33;60.02;100042.71;103530;1337;23194;-34
2022/11/14 11:02:47;;;;;;;4.90;3.70;;;;;;;16.56;59.00;100041.89;103927;1335;22784;-35
2022/11/14 11:05:14;;;;;;;4.90;4.20;;;;;;;16.57;56.39;100037.43;103946;1334;22593;-37